Time;durP1;ratioP1;P1;durP2;ratioP2;P2;SDS_P1;SDS_P2;PMS_P1;PMS_P2;Temp;Humidity;BMP_temperature;BMP_pressure;BME280_temperature;BME280_humidity;BME280_pressure;Samples;Min_cycle;Max_cycle;Signal;HPM_P1;HPM_P2
2020/12/18 00:01:08;;;;;;;26.05;10.60;;;;;;;5.60;76.65;100091.94;5085899;28;20039;-75
2020/12/18 00:03:34;;;;;;;23.98;11.27;;;;;;;5.56;77.03;100090.75;5075110;28;20024;-75
2020/12/18 00:05:59;;;;;;;23.95;10.40;;;;;;;5.60;76.62;100091.94;5070402;28;20029;-73
2020/12/18 00:08:25;;;;;;;24.52;10.20;;;;;;;5.58;76.94;100094.81;5089755;28;20031;-74
2020/12/18 00:10:50;;;;;;;22.13;11.57;;;;;;;5.58;76.83;100094.81;5076343;28;20108;-73
2020/12/18 00:13:15;;;;;;;23.55;12.07;;;;;;;5.59;77.04;100095.59;5081375;28;20024;-74
2020/12/18 00:15:41;;;;;;;26.27;11.98;;;;;;;5.62;77.20;100103.16;5070762;28;20020;-73
2020/12/18 00:18:06;;;;;;;24.73;10.85;;;;;;;5.59;77.17;100096.44;5070086;28;20040;-73
2020/12/18 00:20:32;;;;;;;23.23;11.65;;;;;;;5.59;77.07;100093.78;5072631;28;20079;-74
2020/12/18 00:22:57;;;;;;;23.60;11.13;;;;;;;5.63;76.90;100096.81;5089706;28;20445;-72
2020/12/18 00:25:23;;;;;;;30.38;12.68;;;;;;;5.64;77.16;100098.44;5079514;28;20052;-73
2020/12/18 00:27:48;;;;;;;25.95;12.77;;;;;;;5.62;77.43;100089.88;5090559;28;20477;-72
2020/12/18 00:30:14;;;;;;;27.48;13.48;;;;;;;5.58;76.96;100086.84;5090166;28;20028;-73
2020/12/18 00:32:40;;;;;;;27.38;12.98;;;;;;;5.66;77.17;100098.22;5089915;28;20032;-73
2020/12/18 00:35:11;;;;;;;30.48;13.95;;;;;;;5.63;77.16;100088.03;5071266;28;20028;-73
2020/12/18 00:37:37;;;;;;;29.10;14.00;;;;;;;5.66;77.45;100095.56;5089265;28;20459;-73
2020/12/18 00:40:07;;;;;;;30.55;13.60;;;;;;;5.67;77.52;100090.03;5081521;28;20378;-73
2020/12/18 00:42:32;;;;;;;29.00;14.73;;;;;;;5.72;77.07;100100.00;5079379;28;20493;-73
2020/12/18 00:44:58;;;;;;;27.20;13.48;;;;;;;5.67;77.40;100086.59;5072629;28;20058;-73
2020/12/18 00:47:23;;;;;;;22.67;11.77;;;;;;;5.71;77.45;100101.03;5091242;28;20043;-73
2020/12/18 00:49:48;;;;;;;25.83;12.25;;;;;;;5.64;77.52;100087.00;5089405;28;20035;-74
2020/12/18 00:52:14;;;;;;;25.10;12.32;;;;;;;5.68;77.78;100098.81;5087972;28;20035;-73
2020/12/18 00:54:39;;;;;;;26.85;12.40;;;;;;;5.60;77.40;100086.63;5089389;28;20028;-73
2020/12/18 00:57:04;;;;;;;22.13;11.73;;;;;;;5.60;77.66;100087.44;5088766;28;20032;-74
2020/12/18 00:59:30;;;;;;;25.38;12.00;;;;;;;5.64;77.38;100093.13;5088670;28;20032;-73
2020/12/18 01:02:05;;;;;;;25.05;11.73;;;;;;;5.56;77.54;100080.13;5089304;28;20044;-74
2020/12/18 01:04:30;;;;;;;25.27;12.02;;;;;;;5.63;77.75;100096.00;5077735;28;20032;-73
2020/12/18 01:06:56;;;;;;;27.92;12.50;;;;;;;5.56;77.80;100088.91;5078695;28;20086;-72
2020/12/18 01:09:22;;;;;;;31.40;12.82;;;;;;;5.58;77.54;100096.66;5074422;28;20086;-73
2020/12/18 01:11:48;;;;;;;26.55;11.52;;;;;;;5.55;77.52;100084.63;5075735;28;20024;-74
2020/12/18 01:14:14;;;;;;;23.95;10.27;;;;;;;5.55;77.65;100087.28;5075015;28;20047;-72
2020/12/18 01:16:40;;;;;;;30.77;12.52;;;;;;;5.54;78.29;100088.31;5088189;28;20045;-73
2020/12/18 01:19:05;;;;;;;22.02;10.95;;;;;;;5.53;77.92;100084.03;5084380;28;20032;-73
2020/12/18 01:21:30;;;;;;;26.05;12.15;;;;;;;5.57;78.41;100090.53;5069865;28;20481;-72
2020/12/18 01:23:56;;;;;;;28.70;11.07;;;;;;;5.50;78.13;100076.50;5073697;28;20048;-72
2020/12/18 01:26:21;;;;;;;20.88;10.00;;;;;;;5.50;77.79;100071.19;5073948;28;20037;-73
2020/12/18 01:28:47;;;;;;;29.17;11.48;;;;;;;5.52;78.17;100077.09;5074108;28;20036;-73
2020/12/18 01:31:12;;;;;;;30.80;12.45;;;;;;;5.53;77.72;100081.38;5076059;28;20105;-71
2020/12/18 01:33:37;;;;;;;29.25;12.40;;;;;;;5.48;77.91;100067.97;5083949;28;20129;-72
2020/12/18 01:36:05;;;;;;;28.55;13.02;;;;;;;5.51;78.23;100080.78;5069209;28;20029;-73
2020/12/18 01:38:30;;;;;;;27.02;12.40;;;;;;;5.46;78.29;100080.63;5070599;28;20416;-73
2020/12/18 01:40:56;;;;;;;25.50;12.73;;;;;;;5.49;78.64;100082.84;5070070;28;20024;-73
2020/12/18 01:43:22;;;;;;;26.85;12.18;;;;;;;5.47;78.45;100078.78;5078928;28;20044;-73
2020/12/18 01:45:47;;;;;;;32.15;13.70;;;;;;;5.42;78.42;100074.94;5069322;28;20047;-74
2020/12/18 01:48:13;;;;;;;23.58;12.23;;;;;;;5.45;78.90;100079.78;5071919;28;20044;-72
2020/12/18 01:50:39;;;;;;;25.90;11.30;;;;;;;5.45;78.97;100089.59;5078834;28;20478;-73
2020/12/18 01:53:05;;;;;;;28.02;12.25;;;;;;;5.41;78.82;100078.63;5070020;28;20477;-73
2020/12/18 01:55:31;;;;;;;30.55;13.98;;;;;;;5.43;78.73;100073.91;5072829;28;20097;-73
2020/12/18 01:57:58;;;;;;;26.45;12.68;;;;;;;5.45;78.99;100079.00;5083621;28;20036;-74
2020/12/18 02:00:26;;;;;;;29.80;13.10;;;;;;;5.44;78.98;100077.38;5069042;28;20037;-73
2020/12/18 02:02:54;;;;;;;31.40;13.20;;;;;;;5.50;79.00;100081.00;5074858;28;20032;-74
2020/12/18 02:05:19;;;;;;;30.70;13.67;;;;;;;5.48;78.87;100072.44;5092441;28;20504;-74
2020/12/18 02:08:01;;;;;;;31.83;13.38;;;;;;;5.55;78.99;100083.81;5080840;28;20270;-73
2020/12/18 02:10:26;;;;;;;24.40;11.43;;;;;;;5.51;78.58;100077.31;5087420;28;20031;-73
2020/12/18 02:12:52;;;;;;;21.50;10.35;;;;;;;5.51;78.91;100074.69;5083803;28;20032;-73
2020/12/18 02:15:18;;;;;;;21.90;10.77;;;;;;;5.44;78.63;100064.94;5074135;28;20477;-73
2020/12/18 02:17:43;;;;;;;25.15;11.75;;;;;;;5.44;78.82;100072.91;5073057;28;20028;-73
2020/12/18 02:20:09;;;;;;;27.60;10.80;;;;;;;5.47;79.04;100074.28;5073807;28;20032;-73
2020/12/18 02:22:34;;;;;;;25.15;11.27;;;;;;;5.48;78.49;100072.44;5081063;28;20028;-72
2020/12/18 02:25:10;;;;;;;26.35;11.63;;;;;;;5.51;78.81;100074.69;5091836;28;20109;-72
2020/12/18 02:27:37;;;;;;;27.50;10.18;;;;;;;5.53;78.94;100078.72;5077804;28;20029;-72
2020/12/18 02:30:05;;;;;;;29.58;12.43;;;;;;;5.47;78.87;100071.66;5092230;28;20435;-73
2020/12/18 02:32:30;;;;;;;26.10;11.13;;;;;;;5.49;78.92;100076.72;5093899;28;20028;-72
2020/12/18 02:34:55;;;;;;;26.58;11.25;;;;;;;5.48;79.20;100077.75;5093420;28;20361;-73
2020/12/18 02:37:21;;;;;;;28.02;11.93;;;;;;;5.50;78.91;100083.66;5091123;28;20036;-73
2020/12/18 02:39:46;;;;;;;25.80;11.95;;;;;;;5.52;79.12;100082.41;5075358;28;20043;-72
2020/12/18 02:42:12;;;;;;;28.00;11.38;;;;;;;5.55;78.99;100083.81;5092778;28;20086;-72
2020/12/18 02:44:37;;;;;;;29.50;11.38;;;;;;;5.53;79.20;100078.72;5091120;28;20028;-73
2020/12/18 02:47:03;;;;;;;28.95;11.82;;;;;;;5.51;78.62;100074.69;5091037;28;20032;-74
2020/12/18 02:49:28;;;;;;;24.63;11.18;;;;;;;5.52;79.01;100077.09;5093266;28;20065;-73
2020/12/18 02:51:54;;;;;;;23.33;11.27;;;;;;;5.50;79.25;100065.09;5085268;28;20064;-74
2020/12/18 02:54:20;;;;;;;26.02;11.80;;;;;;;5.48;79.11;100075.09;5073238;28;20115;-73
2020/12/18 02:56:45;;;;;;;23.30;11.43;;;;;;;5.47;79.12;100082.25;5076507;28;20580;-73
2020/12/18 02:59:10;;;;;;;30.35;11.88;;;;;;;5.45;79.28;100076.34;5071916;28;20032;-71
2020/12/18 03:01:36;;;;;;;28.30;11.73;;;;;;;5.46;79.19;100075.31;5078091;28;20493;-72
2020/12/18 03:04:01;;;;;;;26.73;12.60;;;;;;;5.47;79.41;100076.13;5087187;28;20115;-72
2020/12/18 03:06:27;;;;;;;24.77;12.93;;;;;;;5.49;79.36;100077.53;5092523;28;20024;-72
2020/12/18 03:08:52;;;;;;;28.77;11.60;;;;;;;5.50;79.00;100075.69;5073228;28;20028;-73
2020/12/18 03:11:18;;;;;;;29.48;13.20;;;;;;;5.41;79.30;100069.84;5082406;28;20036;-72
2020/12/18 03:13:44;;;;;;;31.17;11.77;;;;;;;5.48;79.39;100083.88;5089924;28;20445;-71
2020/12/18 03:16:11;;;;;;;22.80;11.65;;;;;;;5.36;78.99;100073.16;5092417;28;20465;-72
2020/12/18 03:18:37;;;;;;;23.70;10.73;;;;;;;5.40;79.44;100084.94;5092924;28;20477;-72
2020/12/18 03:21:02;;;;;;;24.45;11.20;;;;;;;5.37;79.33;100087.22;5092288;28;20059;-72
2020/12/18 03:23:28;;;;;;;28.02;12.00;;;;;;;5.38;79.48;100086.19;5084957;28;20497;-72
2020/12/18 03:25:53;;;;;;;26.40;10.63;;;;;;;5.34;79.50;100085.81;5071594;28;20123;-73
2020/12/18 03:28:19;;;;;;;33.22;11.43;;;;;;;5.29;79.57;100075.03;5072446;28;20025;-73
2020/12/18 03:30:44;;;;;;;23.58;10.43;;;;;;;5.32;79.64;100085.19;5088271;28;20032;-73
2020/12/18 03:33:09;;;;;;;27.58;12.07;;;;;;;5.23;79.79;100068.75;5086800;28;20032;-73
2020/12/18 03:35:35;;;;;;;25.77;10.70;;;;;;;5.33;79.73;100086.03;5078481;28;20525;-73
2020/12/18 03:38:00;;;;;;;28.92;10.60;;;;;;;5.33;80.18;100086.84;5085749;28;20031;-73
2020/12/18 03:40:26;;;;;;;24.90;11.90;;;;;;;5.29;80.09;100081.16;5073812;28;20037;-73
2020/12/18 03:42:51;;;;;;;28.08;12.02;;;;;;;5.33;79.92;100086.84;5089880;28;20132;-72
2020/12/18 03:45:16;;;;;;;24.45;11.43;;;;;;;5.40;80.07;100089.44;5091913;28;20063;-72
2020/12/18 03:47:42;;;;;;;23.70;9.65;;;;;;;5.37;79.45;100088.03;5091755;28;20088;-73
2020/12/18 03:50:07;;;;;;;24.25;10.10;;;;;;;5.37;79.88;100087.22;5080803;28;20036;-73
2020/12/18 03:52:33;;;;;;;31.70;12.15;;;;;;;5.36;79.75;100088.25;5072283;28;20060;-70
2020/12/18 03:54:58;;;;;;;25.95;11.93;;;;;;;5.32;80.40;100082.56;5080768;28;20040;-71
2020/12/18 03:57:24;;;;;;;25.08;12.07;;;;;;;5.37;79.96;100092.53;5074628;28;20041;-72
2020/12/18 03:59:50;;;;;;;25.60;11.68;;;;;;;5.39;80.06;100104.53;5085228;28;20522;-73
2020/12/18 04:02:15;;;;;;;26.75;12.85;;;;;;;5.39;80.35;100098.44;5076501;28;20115;-71
2020/12/18 04:04:40;;;;;;;24.45;12.48;;;;;;;5.40;80.04;100097.41;5072226;28;20390;-72
2020/12/18 04:07:07;;;;;;;30.73;13.27;;;;;;;5.40;80.21;100100.06;5071450;28;20429;-74
2020/12/18 04:09:32;;;;;;;28.83;12.52;;;;;;;5.44;80.11;100103.91;5070795;28;20040;-73
2020/12/18 04:11:58;;;;;;;27.40;12.75;;;;;;;5.42;80.00;100098.00;5070618;28;20164;-72
2020/12/18 04:14:23;;;;;;;33.58;13.43;;;;;;;5.45;80.26;100097.56;5083217;28;20032;-73
2020/12/18 04:16:48;;;;;;;33.50;13.13;;;;;;;5.50;80.36;100102.22;5091090;28;20035;-72
2020/12/18 04:19:14;;;;;;;28.70;12.40;;;;;;;5.43;79.66;100087.19;5089904;28;20500;-72
2020/12/18 04:21:39;;;;;;;26.00;11.90;;;;;;;5.37;79.94;100080.09;5088191;28;20107;-71
2020/12/18 04:24:05;;;;;;;28.52;12.82;;;;;;;5.44;79.99;100093.28;5074845;28;20051;-71
2020/12/18 04:26:30;;;;;;;30.58;12.40;;;;;;;5.51;79.74;100098.56;5074012;28;20061;-72
2020/12/18 04:28:56;;;;;;;28.27;12.80;;;;;;;5.51;79.71;100096.69;5071429;28;20086;-73
2020/12/18 04:31:22;;;;;;;28.23;12.75;;;;;;;5.46;80.04;100093.88;5070156;28;20024;-71
2020/12/18 04:33:47;;;;;;;29.75;12.75;;;;;;;5.53;79.85;100102.63;5084120;28;20432;-71
2020/12/18 04:36:15;;;;;;;26.55;12.68;;;;;;;5.54;79.71;100100.75;5070806;28;20101;-71
2020/12/18 04:38:40;;;;;;;33.15;13.50;;;;;;;5.54;79.78;100103.41;5080891;28;20504;-74
2020/12/18 04:41:06;;;;;;;32.53;13.68;;;;;;;5.56;80.08;100110.13;5079879;28;20020;-74
2020/12/18 04:43:32;;;;;;;29.95;13.13;;;;;;;5.57;79.47;100105.66;5088895;28;20122;-73
2020/12/18 04:45:59;;;;;;;28.13;12.77;;;;;;;5.59;79.62;100112.38;5089603;28;20119;-72
2020/12/18 04:48:26;;;;;;;36.47;14.35;;;;;;;5.59;79.87;100108.88;5074780;28;20039;-73
2020/12/18 04:50:55;;;;;;;31.50;13.52;;;;;;;5.59;79.42;100114.19;5071023;28;20067;-72
2020/12/18 04:53:26;;;;;;;30.15;13.38;;;;;;;5.61;79.57;100115.63;5083323;28;20496;-74
2020/12/18 04:55:54;;;;;;;28.92;13.05;;;;;;;5.65;79.68;100110.69;5085784;28;20473;-73
2020/12/18 04:58:24;;;;;;;28.75;13.30;;;;;;;5.64;79.55;100108.22;5070448;28;20452;-72
2020/12/18 05:00:53;;;;;;;25.48;11.82;;;;;;;5.69;79.66;100111.03;5076050;28;20028;-72
2020/12/18 05:03:19;;;;;;;26.10;13.10;;;;;;;5.68;79.27;100109.44;5083669;28;20024;-72
2020/12/18 05:05:44;;;;;;;26.45;12.93;;;;;;;5.69;79.42;100108.38;5089678;28;20085;-71
2020/12/18 05:08:09;;;;;;;24.25;11.57;;;;;;;5.70;79.21;100118.81;5089711;28;20047;-72
2020/12/18 05:10:35;;;;;;;35.15;13.50;;;;;;;5.66;79.14;100109.63;5087144;28;20040;-73
2020/12/18 05:13:01;;;;;;;40.05;14.20;;;;;;;5.77;79.20;100129.34;5069897;28;20060;-73
2020/12/18 05:15:27;;;;;;;27.13;11.80;;;;;;;5.70;79.32;100115.31;5074226;28;20028;-72
2020/12/18 05:17:56;;;;;;;34.75;14.23;;;;;;;5.79;79.22;100129.16;5091056;28;20431;-75
2020/12/18 05:20:23;;;;;;;28.83;13.77;;;;;;;5.77;78.73;100127.53;5088234;28;20462;-73
2020/12/18 05:22:52;;;;;;;30.38;14.02;;;;;;;5.71;79.17;100124.91;5077858;28;20120;-72
2020/12/18 05:25:18;;;;;;;34.70;15.23;;;;;;;5.59;79.24;100107.06;5086398;28;20044;-73
2020/12/18 05:27:43;;;;;;;28.20;13.07;;;;;;;5.70;79.54;100118.81;5090744;28;20523;-72
2020/12/18 05:30:09;;;;;;;31.75;14.80;;;;;;;5.75;79.01;100131.44;5076222;28;20052;-74
2020/12/18 05:32:34;;;;;;;29.30;13.50;;;;;;;5.71;79.26;100133.72;5076382;28;20044;-74
2020/12/18 05:35:00;;;;;;;33.78;14.85;;;;;;;5.67;79.29;100137.00;5072766;28;20040;-74
2020/12/18 05:37:34;;;;;;;43.35;20.35;;;;;;;5.65;79.56;100139.06;5073270;28;20521;-74
2020/12/18 05:40:00;;;;;;;47.03;19.48;;;;;;;5.59;79.98;100132.75;5093067;28;20621;-74
2020/12/18 05:42:25;;;;;;;46.30;21.42;;;;;;;5.61;80.02;100142.16;5091538;28;20023;-72
2020/12/18 05:44:51;;;;;;;40.97;22.08;;;;;;;5.64;80.13;100148.03;5086679;28;20516;-72
2020/12/18 05:47:16;;;;;;;46.28;22.52;;;;;;;5.54;80.00;100132.59;5073262;28;20024;-73
2020/12/18 05:49:42;;;;;;;39.58;20.38;;;;;;;5.60;80.00;100142.34;5073548;28;20063;-73
2020/12/18 05:52:09;;;;;;;43.67;18.45;;;;;;;5.60;80.36;100139.69;5080174;28;20028;-74
2020/12/18 05:54:36;;;;;;;41.92;21.95;;;;;;;5.66;79.57;100154.75;5091275;28;20028;-73
2020/12/18 05:57:13;;;;;;;43.40;19.08;;;;;;;5.63;79.75;100151.72;5086954;28;20031;-73
2020/12/18 05:59:43;;;;;;;44.90;19.55;;;;;;;5.68;80.03;100152.72;5087019;28;20032;-73
2020/12/18 06:02:12;;;;;;;39.40;18.38;;;;;;;5.72;79.56;100161.06;5078762;28;20029;-73
2020/12/18 06:04:38;;;;;;;36.75;18.05;;;;;;;5.71;79.53;100154.94;5093542;28;20036;-73
2020/12/18 06:07:05;;;;;;;46.25;18.30;;;;;;;5.74;79.20;100156.34;5092095;28;20044;-73
2020/12/18 06:09:31;;;;;;;36.58;18.55;;;;;;;5.73;79.68;100155.53;5089492;28;20033;-72
2020/12/18 06:11:57;;;;;;;49.80;21.15;;;;;;;5.69;79.55;100161.47;5092111;28;20537;-72
2020/12/18 06:14:22;;;;;;;46.33;21.17;;;;;;;5.69;79.68;100162.31;5085507;28;20027;-72
2020/12/18 06:16:50;;;;;;;51.55;22.63;;;;;;;5.70;79.65;100169.25;5087730;28;20040;-74
2020/12/18 06:19:18;;;;;;;47.17;23.75;;;;;;;5.66;79.09;100159.25;5081031;28;20090;-74
2020/12/18 06:21:57;;;;;;;50.37;23.53;;;;;;;5.71;79.69;100170.03;5084748;28;20055;-74
2020/12/18 06:24:23;;;;;;;43.78;19.73;;;;;;;5.68;79.16;100171.28;5090751;28;20040;-74
2020/12/18 06:26:57;;;;;;;44.80;21.55;;;;;;;5.69;79.29;100172.09;5093965;28;20044;-73
2020/12/18 06:29:24;;;;;;;54.88;24.83;;;;;;;5.66;79.31;100161.91;5073539;28;20023;-74
2020/12/18 06:31:49;;;;;;;51.30;25.10;;;;;;;5.66;79.90;100159.25;5079216;28;20089;-73
2020/12/18 06:34:26;;;;;;;44.40;20.13;;;;;;;5.63;79.67;100154.38;5090834;28;20025;-73
2020/12/18 06:36:52;;;;;;;44.67;20.95;;;;;;;5.77;79.99;100171.81;5072646;28;20074;-73
2020/12/18 06:39:37;;;;;;;49.35;24.67;;;;;;;5.80;80.12;100174.06;5076208;28;20064;-72
2020/12/18 06:42:12;;;;;;;56.30;26.05;;;;;;;5.79;79.84;100164.47;5076703;28;20041;-72
2020/12/18 06:44:40;;;;;;;54.60;25.27;;;;;;;5.89;79.89;100178.06;5072357;28;20032;-72
2020/12/18 06:47:25;;;;;;;63.90;27.95;;;;;;;5.92;79.63;100174.19;5073204;28;20447;-72
2020/12/18 06:49:56;;;;;;;59.58;28.88;;;;;;;5.96;78.95;100175.34;5074268;28;20081;-71
2020/12/18 06:52:46;;;;;;;59.13;29.02;;;;;;;5.96;79.06;100177.19;5073026;28;20032;-73
2020/12/18 06:55:12;;;;;;;55.92;26.38;;;;;;;5.94;79.02;100185.38;5078403;28;20047;-72
2020/12/18 06:57:38;;;;;;;56.80;26.73;;;;;;;5.88;78.79;100184.41;5084319;28;20032;-72
2020/12/18 07:00:31;;;;;;;52.63;25.98;;;;;;;5.80;79.01;100178.53;5089859;28;20136;-73
2020/12/18 07:02:57;;;;;;;53.35;23.55;;;;;;;5.70;79.34;100173.72;5073596;28;20043;-72
2020/12/18 07:05:40;;;;;;;44.10;21.58;;;;;;;5.71;79.14;100170.88;5076294;28;20024;-72
2020/12/18 07:08:13;;;;;;;38.03;22.08;;;;;;;5.68;79.17;100168.63;5078326;28;20024;-72
2020/12/18 07:10:44;;;;;;;36.55;18.60;;;;;;;5.75;79.23;100177.34;5081853;28;20548;-75
2020/12/18 07:13:15;;;;;;;37.85;17.00;;;;;;;5.71;79.05;100167.38;5087888;28;20031;-74
2020/12/18 07:15:46;;;;;;;34.35;15.88;;;;;;;5.75;78.88;100181.88;5091969;28;20016;-74
2020/12/18 07:18:19;;;;;;;33.78;14.00;;;;;;;5.60;78.65;100168.88;5090220;28;20028;-73
2020/12/18 07:20:46;;;;;;;37.33;14.80;;;;;;;5.73;79.03;100179.41;5093818;28;20031;-75
2020/12/18 07:23:12;;;;;;;33.35;13.77;;;;;;;5.71;78.83;100186.78;5093980;28;20084;-75
2020/12/18 07:25:37;;;;;;;33.85;14.68;;;;;;;5.71;78.49;100189.44;5101838;28;20442;-74
2020/12/18 07:28:03;;;;;;;29.50;14.15;;;;;;;5.71;78.86;100188.63;5091565;28;20516;-73
2020/12/18 07:30:32;;;;;;;34.13;14.93;;;;;;;5.73;78.80;100187.38;5081428;28;20501;-73
2020/12/18 07:32:57;;;;;;;37.50;14.07;;;;;;;5.77;77.92;100190.41;5088765;28;20020;-74
2020/12/18 07:35:23;;;;;;;25.60;12.73;;;;;;;5.74;77.80;100183.69;5083793;28;20079;-75
2020/12/18 07:37:49;;;;;;;27.45;12.50;;;;;;;5.82;77.76;100195.06;5072894;28;20029;-74
2020/12/18 07:40:16;;;;;;;26.00;12.95;;;;;;;5.84;77.85;100190.38;5079374;28;20487;-75
2020/12/18 07:42:41;;;;;;;33.80;13.23;;;;;;;5.82;77.81;100185.25;5091296;28;20024;-75
2020/12/18 07:45:08;;;;;;;30.02;12.63;;;;;;;5.86;77.78;100181.16;5084340;28;20615;-74
2020/12/18 07:47:38;;;;;;;28.23;11.18;;;;;;;5.89;77.75;100188.69;5084948;28;20492;-76
2020/12/18 07:50:08;;;;;;;25.63;11.60;;;;;;;5.90;77.56;100189.50;5091342;28;20488;-76
2020/12/18 07:52:35;;;;;;;20.95;10.02;;;;;;;5.91;77.06;100188.47;5070680;28;20036;-77
2020/12/18 07:55:01;;;;;;;24.52;11.93;;;;;;;5.91;77.23;100186.63;5084505;28;20040;-73
2020/12/18 07:57:26;;;;;;;30.92;10.77;;;;;;;5.89;76.99;100182.56;5088025;28;20047;-74
2020/12/18 08:00:35;;;;;;;25.65;11.50;;;;;;;5.93;77.15;100197.03;5092659;28;20036;-74
2020/12/18 08:03:01;;;;;;;29.35;12.13;;;;;;;5.93;76.92;100191.72;5052276;28;20476;-74
2020/12/18 08:05:26;;;;;;;28.02;12.20;;;;;;;5.96;77.29;100196.59;5060765;28;20025;-74
2020/12/18 08:07:58;;;;;;;29.05;13.52;;;;;;;5.97;77.27;100195.56;5063782;28;20259;-74
2020/12/18 08:10:23;;;;;;;34.10;13.65;;;;;;;6.01;77.30;100196.78;5043165;28;20124;-74
2020/12/18 08:12:50;;;;;;;26.25;11.05;;;;;;;6.03;76.90;100202.72;5053117;28;20694;-74
2020/12/18 08:15:16;;;;;;;79.88;34.85;;;;;;;5.89;76.98;100172.75;5061019;28;20170;-74
2020/12/18 08:17:42;;;;;;;65.53;32.30;;;;;;;6.08;77.11;100199.41;5052172;28;20044;-74
2020/12/18 08:20:11;;;;;;;39.05;16.15;;;;;;;6.12;76.67;100199.78;5066925;28;20037;-75
2020/12/18 08:22:39;;;;;;;;;;;;;;;6.18;76.48;100207.69;5052324;28;20037;-74
2020/12/18 08:25:07;;;;;;;30.33;15.48;;;;;;;6.19;76.70;100204.00;5061766;28;20409;-74
2020/12/18 08:27:47;;;;;;;36.00;16.10;;;;;;;6.23;76.73;100204.38;5032274;28;20039;-74
2020/12/18 08:30:16;;;;;;;28.75;13.80;;;;;;;6.16;76.53;100187.69;5062824;28;20066;-74
2020/12/18 08:32:47;;;;;;;29.58;13.25;;;;;;;6.27;76.76;100202.91;5060133;28;20032;-73
2020/12/18 08:35:19;;;;;;;33.03;13.48;;;;;;;6.29;76.28;100203.50;5083179;28;20021;-74
2020/12/18 08:37:44;;;;;;;28.65;14.23;;;;;;;6.32;76.46;100199.59;5080574;28;20039;-73
2020/12/18 08:40:20;;;;;;;30.42;15.25;;;;;;;6.33;75.74;100201.22;5087239;28;20481;-73
2020/12/18 08:42:58;;;;;;;33.28;15.70;;;;;;;6.33;75.95;100206.53;5087414;28;20032;-74
2020/12/18 08:45:24;;;;;;;35.53;17.20;;;;;;;6.35;75.91;100202.63;5088367;28;20031;-74
2020/12/18 08:47:50;;;;;;;35.88;15.82;;;;;;;6.35;75.71;100196.50;5101664;28;20158;-75
2020/12/18 08:50:18;;;;;;;35.60;17.95;;;;;;;6.37;76.31;100199.72;5088853;28;20035;-73
2020/12/18 08:52:45;;;;;;;30.10;15.02;;;;;;;6.34;75.99;100184.25;5086338;28;20280;-73
2020/12/18 08:55:10;;;;;;;32.08;15.73;;;;;;;6.43;75.39;100188.22;5089528;28;20073;-76
2020/12/18 08:57:37;;;;;;;35.58;14.95;;;;;;;6.47;75.92;100194.75;5088459;28;20028;-73
2020/12/18 09:00:05;;;;;;;32.15;15.10;;;;;;;6.50;76.06;100180.19;5079930;28;20102;-74
2020/12/18 09:02:34;;;;;;;30.88;13.70;;;;;;;6.54;74.98;100178.72;5088361;28;20024;-73
2020/12/18 09:05:21;;;;;;;27.55;12.68;;;;;;;6.56;75.30;100180.13;5067991;28;20453;-74
2020/12/18 09:07:50;;;;;;;32.22;16.30;;;;;;;6.51;75.06;100172.00;5069636;28;20024;-73
2020/12/18 09:10:26;;;;;;;35.33;15.15;;;;;;;6.61;75.33;100176.78;5070872;28;20425;-74
2020/12/18 09:12:51;;;;;;;32.95;14.13;;;;;;;6.63;74.99;100184.53;5069986;28;20064;-72
2020/12/18 09:15:18;;;;;;;32.95;15.05;;;;;;;6.72;74.51;100188.53;5070059;28;20056;-71
2020/12/18 09:17:44;;;;;;;30.95;15.05;;;;;;;6.67;73.79;100183.09;5070536;28;20499;-72
2020/12/18 09:20:09;;;;;;;40.03;16.85;;;;;;;6.76;74.16;100183.59;5070134;28;20088;-71
2020/12/18 09:22:53;;;;;;;37.42;19.23;;;;;;;6.84;74.38;100183.28;5074956;28;20024;-72
2020/12/18 09:25:20;;;;;;;43.25;18.05;;;;;;;6.89;74.13;100172.81;5101232;28;20055;-72
2020/12/18 09:27:57;;;;;;;38.13;17.85;;;;;;;6.99;73.75;100177.59;5108308;28;20024;-72
2020/12/18 09:30:24;;;;;;;41.50;17.40;;;;;;;7.03;73.00;100176.91;5071567;28;20067;-74
2020/12/18 09:33:09;;;;;;;36.85;17.13;;;;;;;7.06;72.71;100178.31;5083658;28;20036;-75
2020/12/18 09:35:35;;;;;;;47.03;21.08;;;;;;;7.08;73.01;100167.44;5086979;28;20035;-74
2020/12/18 09:38:01;;;;;;;31.67;15.40;;;;;;;7.10;72.09;100173.34;5078301;28;20067;-75
2020/12/18 09:40:26;;;;;;;33.60;12.88;;;;;;;7.02;72.46;100167.31;5087175;28;20550;-75
2020/12/18 09:42:52;;;;;;;35.45;14.95;;;;;;;6.95;72.31;100153.28;5088152;28;20141;-73
2020/12/18 09:45:17;;;;;;;39.40;14.60;;;;;;;7.01;72.67;100165.69;5073753;28;20039;-73
2020/12/18 09:47:43;;;;;;;39.78;17.17;;;;;;;7.02;72.84;100166.50;5076410;28;20122;-74
2020/12/18 09:50:11;;;;;;;30.25;15.00;;;;;;;7.02;72.73;100159.34;5086699;28;20040;-75
2020/12/18 09:52:37;;;;;;;;;;;;;;;7.07;73.14;100165.81;5073060;28;20089;-73
2020/12/18 09:55:02;;;;;;;33.53;15.13;;;;;;;7.03;72.35;100163.63;5080513;28;20277;-75
2020/12/18 09:57:28;;;;;;;35.53;15.02;;;;;;;7.03;72.56;100168.94;5088206;28;20050;-73
2020/12/18 09:59:53;;;;;;;40.17;15.85;;;;;;;6.95;72.17;100161.25;5074982;28;20487;-72
2020/12/18 10:02:19;;;;;;;35.90;15.68;;;;;;;6.98;72.49;100166.16;5084675;28;20028;-72
2020/12/18 10:04:44;;;;;;;34.53;13.77;;;;;;;6.93;72.20;100158.00;5085714;28;20126;-73
2020/12/18 10:07:10;;;;;;;43.05;16.85;;;;;;;6.91;72.26;100156.59;5069182;28;20556;-72
2020/12/18 10:09:35;;;;;;;36.45;15.88;;;;;;;6.94;72.43;100150.84;5093239;28;20080;-71
2020/12/18 10:12:00;;;;;;;31.38;15.18;;;;;;;6.89;72.22;100146.22;5108964;28;20038;-72
2020/12/18 10:14:26;;;;;;;30.33;15.00;;;;;;;6.94;71.98;100150.84;5109458;28;20438;-74
2020/12/18 10:16:51;;;;;;;33.83;14.32;;;;;;;6.92;71.60;100140.44;5078624;28;20036;-73
2020/12/18 10:19:17;;;;;;;31.00;14.60;;;;;;;6.99;72.48;100138.50;5088197;28;20102;-74
2020/12/18 10:21:42;;;;;;;31.33;14.68;;;;;;;7.00;72.42;100132.13;5087214;28;20055;-74
2020/12/18 10:24:08;;;;;;;31.35;15.65;;;;;;;7.08;72.15;100139.00;5107557;28;20065;-72
2020/12/18 10:26:33;;;;;;;34.33;14.40;;;;;;;7.20;71.69;100141.69;5111635;28;20110;-73
2020/12/18 10:28:58;;;;;;;34.67;14.65;;;;;;;7.25;70.79;100130.38;5087679;28;20028;-76
2020/12/18 10:31:24;;;;;;;26.77;13.13;;;;;;;7.28;70.85;100132.59;5091896;28;20089;-72
2020/12/18 10:33:49;;;;;;;30.20;14.85;;;;;;;7.33;71.23;100124.72;5087803;28;20070;-74
2020/12/18 10:36:15;;;;;;;27.25;13.63;;;;;;;7.40;70.55;100132.59;5092647;28;20081;-73
2020/12/18 10:38:41;;;;;;;33.63;13.43;;;;;;;7.41;69.99;100129.75;5092149;28;20032;-73
2020/12/18 10:41:08;;;;;;;34.85;14.70;;;;;;;7.49;70.20;100133.91;5088287;28;20028;-73
2020/12/18 10:43:33;;;;;;;33.10;15.23;;;;;;;7.46;70.12;100129.84;5073007;28;20067;-73
2020/12/18 10:45:59;;;;;;;28.40;15.15;;;;;;;7.41;69.47;100123.59;5072524;28;20064;-72
2020/12/18 10:48:25;;;;;;;36.67;15.13;;;;;;;7.41;70.11;100123.59;5082213;28;20058;-73
2020/12/18 10:50:50;;;;;;;31.92;14.63;;;;;;;7.39;69.68;100118.50;5073325;28;20062;-74
2020/12/18 10:53:16;;;;;;;31.15;14.05;;;;;;;7.43;69.64;100132.97;5080053;28;20114;-73
2020/12/18 10:55:41;;;;;;;25.10;12.38;;;;;;;7.35;69.49;100130.66;5092325;28;20067;-73
2020/12/18 10:58:07;;;;;;;32.53;14.00;;;;;;;7.32;69.79;100118.63;5076527;28;20036;-73
2020/12/18 11:00:32;;;;;;;32.65;13.05;;;;;;;7.33;69.56;100119.41;5077901;28;20066;-74
2020/12/18 11:02:58;;;;;;;28.50;13.30;;;;;;;7.28;69.58;100112.09;5083238;28;20029;-73
2020/12/18 11:05:23;;;;;;;28.45;13.23;;;;;;;7.28;69.81;100103.31;5092245;28;20073;-73
2020/12/18 11:07:49;;;;;;;28.08;13.93;;;;;;;7.27;70.29;100104.34;5092317;28;20043;-75
2020/12/18 11:10:14;;;;;;;26.60;12.65;;;;;;;7.25;70.32;100093.94;5074647;28;20481;-75
2020/12/18 11:12:40;;;;;;;23.40;10.93;;;;;;;7.26;69.99;100097.41;5079213;28;20484;-75
2020/12/18 11:15:05;;;;;;;28.15;13.63;;;;;;;7.30;71.00;100095.91;5091368;28;20481;-75
2020/12/18 11:17:31;;;;;;;28.88;13.02;;;;;;;7.34;70.56;100089.09;5091600;28;20093;-74